Time;durP1;ratioP1;P1;durP2;ratioP2;P2;SDS_P1;SDS_P2;PMS_P1;PMS_P2;Temp;Humidity;BMP_temperature;BMP_pressure;BME280_temperature;BME280_humidity;BME280_pressure;Samples;Min_cycle;Max_cycle;Signal;HPM_P1;HPM_P2
2023/12/08 00:00:56;;;;;;;35.80;18.00;;;1.10;99.90;;;;;;5052775;28;20207;-52
2023/12/08 00:03:25;;;;;;;37.27;18.63;;;1.10;99.90;;;;;;5030496;28;20224;-53
2023/12/08 00:05:52;;;;;;;37.63;18.80;;;1.10;99.90;;;;;;5053147;28;20215;-50
2023/12/08 00:08:18;;;;;;;39.33;18.17;;;1.10;99.90;;;;;;5043930;28;20260;-52
2023/12/08 00:10:45;;;;;;;39.13;18.57;;;1.10;99.90;;;;;;5059446;28;20199;-49
2023/12/08 00:13:12;;;;;;;38.70;19.03;;;1.20;99.90;;;;;;5062819;28;20218;-50
2023/12/08 00:15:39;;;;;;;38.77;18.40;;;1.10;99.90;;;;;;5057032;28;20283;-51
2023/12/08 00:18:06;;;;;;;37.33;18.67;;;1.10;99.90;;;;;;5032071;28;20716;-49
2023/12/08 00:20:34;;;;;;;38.50;18.10;;;1.10;99.90;;;;;;5060801;28;20198;-53
2023/12/08 00:23:00;;;;;;;35.57;17.10;;;1.10;99.90;;;;;;5056399;28;20688;-48
2023/12/08 00:25:27;;;;;;;36.93;17.97;;;1.10;99.90;;;;;;5050591;28;20191;-50
2023/12/08 00:27:54;;;;;;;37.53;18.70;;;1.10;99.90;;;;;;5063510;28;20248;-52
2023/12/08 00:30:21;;;;;;;35.33;17.70;;;1.10;99.90;;;;;;5060922;28;20688;-48
2023/12/08 00:32:48;;;;;;;37.13;18.00;;;1.10;99.90;;;;;;5062255;28;20252;-53
2023/12/08 00:35:15;;;;;;;36.37;18.10;;;1.00;99.90;;;;;;5032287;28;20300;-53
2023/12/08 00:37:43;;;;;;;38.70;18.80;;;1.00;99.90;;;;;;5054219;28;20259;-52
2023/12/08 00:40:11;;;;;;;34.77;18.03;;;0.90;99.90;;;;;;5049885;28;20570;-50
2023/12/08 00:42:38;;;;;;;37.10;17.93;;;0.90;99.90;;;;;;5061048;28;20378;-51
2023/12/08 00:45:05;;;;;;;38.00;18.27;;;0.90;99.90;;;;;;5063144;28;20269;-52
2023/12/08 00:47:32;;;;;;;41.63;19.27;;;0.80;99.90;;;;;;5059046;28;20202;-53
2023/12/08 00:49:59;;;;;;;36.00;18.57;;;0.80;99.90;;;;;;5024552;28;20876;-51
2023/12/08 00:52:26;;;;;;;35.87;17.83;;;0.80;99.90;;;;;;5056078;28;20323;-51
2023/12/08 00:54:54;;;;;;;38.87;18.07;;;0.80;99.90;;;;;;5051812;28;20241;-52
2023/12/08 00:57:21;;;;;;;36.43;18.40;;;0.80;99.90;;;;;;5058858;28;20215;-49
2023/12/08 00:59:48;;;;;;;35.77;17.73;;;0.80;99.90;;;;;;5060379;28;20194;-51
2023/12/08 01:02:14;;;;;;;34.47;17.40;;;0.80;99.90;;;;;;5061986;28;20194;-50
2023/12/08 01:04:41;;;;;;;36.40;16.83;;;0.70;99.90;;;;;;5031845;28;20198;-52
2023/12/08 01:07:09;;;;;;;34.43;17.77;;;0.70;99.90;;;;;;5053347;28;20250;-53
2023/12/08 01:09:36;;;;;;;37.53;19.33;;;0.70;99.90;;;;;;5062860;28;20209;-53
2023/12/08 01:12:05;;;;;;;37.00;17.73;;;0.70;99.90;;;;;;5050166;28;20202;-54
2023/12/08 01:14:31;;;;;;;36.23;18.37;;;0.60;99.90;;;;;;5062602;28;20190;-49
2023/12/08 01:16:58;;;;;;;34.03;16.57;;;0.60;99.90;;;;;;5058646;28;20304;-52
2023/12/08 01:19:25;;;;;;;33.27;16.97;;;0.60;99.90;;;;;;5062676;28;20255;-50
2023/12/08 01:21:52;;;;;;;35.63;17.70;;;0.60;99.90;;;;;;5028373;28;20265;-50
2023/12/08 01:24:19;;;;;;;32.27;16.40;;;0.60;99.90;;;;;;5062336;28;20194;-51
2023/12/08 01:26:47;;;;;;;36.23;17.43;;;0.50;99.90;;;;;;5055401;28;20251;-50
2023/12/08 01:29:15;;;;;;;31.07;17.27;;;0.60;99.90;;;;;;5057568;28;20202;-55
2023/12/08 01:31:42;;;;;;;34.03;18.43;;;0.50;99.90;;;;;;5060968;28;20199;-52
2023/12/08 01:34:08;;;;;;;31.73;15.67;;;0.50;99.90;;;;;;5056444;28;20198;-49
2023/12/08 01:36:35;;;;;;;29.83;16.27;;;0.50;99.90;;;;;;5031117;28;20693;-51
2023/12/08 01:39:02;;;;;;;27.30;16.10;;;0.50;99.90;;;;;;5058786;28;20240;-50
2023/12/08 01:41:29;;;;;;;32.37;17.13;;;0.50;99.90;;;;;;5062458;28;20252;-52
2023/12/08 01:43:55;;;;;;;32.50;17.20;;;0.50;99.90;;;;;;5049136;28;20214;-53
2023/12/08 01:46:24;;;;;;;31.97;17.13;;;0.40;99.90;;;;;;5062284;28;20226;-50
2023/12/08 01:48:51;;;;;;;30.60;16.60;;;0.50;99.90;;;;;;5058694;28;20195;-53
2023/12/08 01:51:19;;;;;;;33.33;17.67;;;0.40;99.90;;;;;;5028143;28;20210;-53
2023/12/08 01:53:47;;;;;;;33.87;16.90;;;0.40;99.90;;;;;;5059040;28;20649;-51
2023/12/08 01:56:15;;;;;;;31.90;16.53;;;0.40;99.90;;;;;;5060786;28;20870;-53
2023/12/08 01:58:43;;;;;;;31.73;17.27;;;0.40;99.90;;;;;;5051453;28;20727;-50
2023/12/08 02:01:11;;;;;;;30.87;16.33;;;0.40;99.90;;;;;;5060558;28;20203;-50
2023/12/08 02:03:40;;;;;;;32.50;16.60;;;0.40;99.90;;;;;;5061759;28;20531;-51
2023/12/08 02:06:08;;;;;;;32.43;17.17;;;0.40;99.90;;;;;;5059610;28;20218;-51
2023/12/08 02:08:36;;;;;;;33.90;17.63;;;0.40;99.90;;;;;;5031699;28;20295;-52
2023/12/08 02:11:02;;;;;;;32.87;17.00;;;0.50;99.90;;;;;;5058289;28;20207;-52
2023/12/08 02:13:29;;;;;;;32.23;17.87;;;0.40;99.90;;;;;;5050591;28;20210;-53
2023/12/08 02:16:03;;;;;;;32.90;17.77;;;0.40;99.90;;;;;;5052260;28;20237;-49
2023/12/08 02:18:32;;;;;;;30.47;15.57;;;0.40;99.90;;;;;;5053479;28;20285;-49
2023/12/08 02:21:02;;;;;;;36.77;18.03;;;0.40;99.90;;;;;;5056470;28;20252;-52
2023/12/08 02:23:29;;;;;;;31.53;16.90;;;0.40;99.90;;;;;;5031204;28;20280;-51
2023/12/08 02:25:59;;;;;;;29.93;16.50;;;0.40;99.90;;;;;;5056557;28;20243;-49
2023/12/08 02:28:26;;;;;;;31.90;17.53;;;0.40;99.90;;;;;;5061634;28;20255;-53
2023/12/08 02:30:57;;;;;;;33.00;16.57;;;0.40;99.90;;;;;;5049298;28;20646;-52
2023/12/08 02:33:29;;;;;;;31.63;17.27;;;0.40;99.90;;;;;;5061591;28;20618;-49
2023/12/08 02:35:57;;;;;;;30.17;16.00;;;0.40;99.90;;;;;;5056947;28;20210;-53
2023/12/08 02:38:25;;;;;;;30.73;17.90;;;0.40;99.90;;;;;;5060850;28;20203;-50
2023/12/08 02:40:52;;;;;;;32.23;17.40;;;0.40;99.90;;;;;;5021836;28;20264;-53
2023/12/08 02:43:20;;;;;;;29.03;15.53;;;0.40;99.90;;;;;;5059983;28;20199;-53
2023/12/08 02:45:47;;;;;;;30.53;17.00;;;0.40;99.90;;;;;;5048584;28;20219;-51
2023/12/08 02:48:14;;;;;;;30.33;15.23;;;0.40;99.90;;;;;;5060634;28;20202;-49
2023/12/08 02:50:41;;;;;;;31.33;16.57;;;0.40;99.90;;;;;;5058012;28;20537;-53
2023/12/08 02:53:08;;;;;;;30.37;16.20;;;0.30;99.90;;;;;;5059272;28;20183;-50
2023/12/08 02:55:35;;;;;;;31.30;15.87;;;0.30;99.90;;;;;;5031601;28;20264;-49
2023/12/08 02:58:02;;;;;;;29.60;16.57;;;0.30;99.90;;;;;;5057842;28;20254;-50
2023/12/08 03:00:31;;;;;;;29.10;15.87;;;0.30;99.90;;;;;;5061542;28;20699;-48
2023/12/08 03:02:57;;;;;;;30.10;14.87;;;0.30;99.90;;;;;;5048441;28;20879;-48
2023/12/08 03:05:24;;;;;;;30.07;16.40;;;0.30;99.90;;;;;;5061300;28;20198;-48
2023/12/08 03:07:51;;;;;;;31.30;16.77;;;0.30;99.90;;;;;;5058021;28;20195;-50
2023/12/08 03:10:18;;;;;;;31.03;15.07;;;0.30;99.90;;;;;;5029357;28;20230;-51
2023/12/08 03:12:44;;;;;;;31.30;16.43;;;0.30;99.90;;;;;;5059690;28;20194;-48
2023/12/08 03:15:11;;;;;;;30.13;15.47;;;0.30;99.90;;;;;;5059556;28;20195;-47
2023/12/08 03:17:39;;;;;;;29.10;15.93;;;0.30;99.90;;;;;;5040702;28;20961;-50
2023/12/08 03:20:07;;;;;;;28.73;15.77;;;0.30;99.90;;;;;;5064629;28;20198;-50
2023/12/08 03:22:34;;;;;;;27.47;15.87;;;0.20;99.90;;;;;;5060999;28;20950;-51
2023/12/08 03:25:00;;;;;;;33.30;17.60;;;0.30;99.90;;;;;;5063453;28;20222;-51
2023/12/08 03:27:27;;;;;;;28.83;16.23;;;0.20;99.90;;;;;;5031999;28;20226;-52
2023/12/08 03:29:54;;;;;;;30.17;14.57;;;0.20;99.90;;;;;;5064479;28;20199;-49
2023/12/08 03:32:21;;;;;;;27.77;15.00;;;0.20;99.90;;;;;;5056367;28;20199;-52
2023/12/08 03:34:49;;;;;;;32.23;16.93;;;0.20;99.90;;;;;;5061457;28;20210;-52
2023/12/08 03:37:16;;;;;;;31.83;16.43;;;0.30;99.90;;;;;;5062868;28;20219;-53
2023/12/08 03:39:44;;;;;;;26.43;14.43;;;0.20;99.90;;;;;;5062398;28;20897;-53
2023/12/08 03:42:10;;;;;;;31.23;15.47;;;0.20;99.90;;;;;;5033366;28;20210;-52
2023/12/08 03:44:37;;;;;;;30.17;16.40;;;0.20;99.90;;;;;;5057435;28;20186;-50
2023/12/08 03:47:04;;;;;;;30.53;16.00;;;0.20;99.90;;;;;;5064279;28;20568;-51
2023/12/08 03:49:31;;;;;;;29.67;15.97;;;0.20;99.90;;;;;;5048450;28;20925;-50
2023/12/08 03:51:59;;;;;;;32.80;17.17;;;0.20;99.90;;;;;;5064254;28;20680;-51
2023/12/08 03:54:26;;;;;;;26.33;14.67;;;0.20;99.90;;;;;;5060873;28;20222;-50
2023/12/08 03:56:52;;;;;;;27.40;14.33;;;0.20;99.90;;;;;;5063789;28;20268;-50
2023/12/08 03:59:19;;;;;;;29.80;15.10;;;0.20;99.90;;;;;;5031458;28;20264;-50
2023/12/08 04:01:46;;;;;;;27.50;14.57;;;0.20;99.90;;;;;;5062683;28;20217;-49
2023/12/08 04:04:13;;;;;;;28.47;15.33;;;0.20;99.90;;;;;;5061454;28;20248;-52
2023/12/08 04:06:39;;;;;;;30.07;14.83;;;0.20;99.90;;;;;;5054982;28;20210;-51
2023/12/08 04:09:08;;;;;;;27.57;14.97;;;0.20;99.90;;;;;;5064150;28;20203;-50
2023/12/08 04:11:34;;;;;;;30.00;14.43;;;0.20;99.90;;;;;;5060102;28;20186;-50
2023/12/08 04:14:01;;;;;;;23.73;13.73;;;0.20;99.90;;;;;;5033190;28;20866;-53
2023/12/08 04:16:28;;;;;;;25.37;14.63;;;0.20;99.90;;;;;;5059696;28;20226;-51
2023/12/08 04:18:55;;;;;;;31.40;15.27;;;0.20;99.90;;;;;;5063767;28;20194;-50
2023/12/08 04:21:22;;;;;;;30.23;15.53;;;0.30;99.90;;;;;;5052039;28;20275;-52
2023/12/08 04:23:49;;;;;;;27.37;14.90;;;0.20;99.90;;;;;;5059225;28;20597;-53
2023/12/08 04:26:24;;;;;;;29.37;16.40;;;0.30;99.90;;;;;;5061765;28;20268;-52
2023/12/08 04:28:51;;;;;;;27.57;14.87;;;0.30;99.90;;;;;;5017449;28;20712;-47
2023/12/08 04:31:18;;;;;;;25.23;14.40;;;0.30;99.90;;;;;;5059663;28;20199;-51
2023/12/08 04:33:45;;;;;;;29.40;14.83;;;0.30;99.90;;;;;;5058689;28;20198;-52
2023/12/08 04:36:13;;;;;;;30.60;14.03;;;0.30;99.90;;;;;;5050132;28;20562;-51
2023/12/08 04:38:40;;;;;;;30.20;14.10;;;0.30;99.90;;;;;;5063026;28;20297;-50
2023/12/08 04:41:07;;;;;;;25.10;13.57;;;0.30;99.90;;;;;;5059510;28;20189;-54
2023/12/08 04:43:35;;;;;;;28.10;13.97;;;0.30;99.90;;;;;;5059641;28;20260;-50
2023/12/08 04:46:02;;;;;;;26.33;14.87;;;0.30;99.90;;;;;;5026429;28;20222;-54
2023/12/08 04:48:29;;;;;;;28.00;13.13;;;0.30;99.90;;;;;;5063287;28;20674;-50
2023/12/08 04:50:56;;;;;;;26.03;14.30;;;0.40;99.90;;;;;;5051618;28;20600;-49
2023/12/08 04:53:22;;;;;;;25.97;14.17;;;0.40;99.90;;;;;;5061849;28;20248;-49
2023/12/08 04:55:49;;;;;;;24.87;13.53;;;0.30;99.90;;;;;;5061364;28;20214;-52
2023/12/08 04:58:16;;;;;;;24.70;14.17;;;0.40;99.90;;;;;;5060790;28;20199;-50
2023/12/08 05:00:45;;;;;;;24.20;13.67;;;0.40;99.90;;;;;;5032077;28;20213;-49
2023/12/08 05:03:11;;;;;;;25.07;12.90;;;0.40;99.90;;;;;;5050811;28;20930;-50
2023/12/08 05:05:39;;;;;;;24.93;13.97;;;0.40;99.90;;;;;;5058719;28;20209;-48
2023/12/08 05:08:06;;;;;;;25.60;12.73;;;0.40;99.90;;;;;;5049814;28;20201;-51
2023/12/08 05:10:33;;;;;;;24.93;12.17;;;0.40;99.90;;;;;;5063008;28;20575;-49
2023/12/08 05:13:00;;;;;;;25.03;12.80;;;0.40;99.90;;;;;;5052094;28;20202;-49
2023/12/08 05:15:28;;;;;;;23.37;13.60;;;0.40;99.90;;;;;;5031262;28;20550;-50
2023/12/08 05:17:56;;;;;;;22.47;12.90;;;0.40;99.90;;;;;;5060295;28;20329;-49
2023/12/08 05:20:23;;;;;;;25.10;12.83;;;0.40;99.90;;;;;;5052198;28;20194;-47
2023/12/08 05:22:50;;;;;;;22.43;12.17;;;0.40;99.90;;;;;;5036827;28;20244;-49
2023/12/08 05:25:17;;;;;;;23.40;12.30;;;0.40;99.90;;;;;;5056141;28;20244;-48
2023/12/08 05:27:44;;;;;;;25.57;12.50;;;0.40;99.90;;;;;;5044522;28;20217;-48
2023/12/08 05:30:11;;;;;;;24.67;12.63;;;0.40;99.90;;;;;;5053795;28;20251;-47
2023/12/08 05:32:38;;;;;;;25.13;13.83;;;0.50;99.90;;;;;;5024785;28;20728;-53
2023/12/08 05:35:07;;;;;;;23.47;12.33;;;0.50;99.90;;;;;;5050864;28;20545;-47
2023/12/08 05:37:34;;;;;;;25.17;13.43;;;0.50;99.90;;;;;;5044958;28;20226;-52
2023/12/08 05:40:01;;;;;;;24.80;13.43;;;0.50;99.90;;;;;;5056723;28;20191;-46
2023/12/08 05:42:28;;;;;;;24.10;12.60;;;0.50;99.90;;;;;;5053499;28;20264;-48
2023/12/08 05:44:54;;;;;;;19.23;11.83;;;0.50;99.90;;;;;;5050729;28;20868;-46
2023/12/08 05:47:21;;;;;;;22.17;13.03;;;0.50;99.90;;;;;;5033079;28;20218;-48
2023/12/08 05:49:48;;;;;;;19.67;11.67;;;0.50;99.90;;;;;;5056780;28;20654;-52
2023/12/08 05:52:16;;;;;;;23.53;12.43;;;0.50;99.90;;;;;;5050898;28;20230;-46
2023/12/08 05:54:43;;;;;;;20.27;12.47;;;0.50;99.90;;;;;;5048587;28;20209;-53
2023/12/08 05:57:10;;;;;;;25.93;14.33;;;0.60;99.90;;;;;;5055097;28;20222;-48
2023/12/08 05:59:37;;;;;;;21.60;11.73;;;0.50;99.90;;;;;;5046182;28;20194;-55
2023/12/08 06:02:04;;;;;;;25.00;12.70;;;0.60;99.90;;;;;;5029199;28;20198;-45
2023/12/08 06:04:31;;;;;;;19.77;11.97;;;0.60;99.90;;;;;;5057693;28;20207;-47
2023/12/08 06:06:57;;;;;;;22.33;11.90;;;0.60;99.90;;;;;;5053303;28;20213;-50
2023/12/08 06:09:25;;;;;;;22.63;13.40;;;0.60;99.90;;;;;;5050455;28;20199;-47
2023/12/08 06:11:52;;;;;;;22.40;13.80;;;0.60;99.90;;;;;;5055679;28;20214;-48
2023/12/08 06:14:19;;;;;;;23.30;13.07;;;0.60;99.90;;;;;;5041002;28;20228;-49
2023/12/08 06:16:46;;;;;;;23.10;13.40;;;0.60;99.90;;;;;;5021200;28;20707;-47
2023/12/08 06:19:13;;;;;;;24.37;13.57;;;0.60;99.90;;;;;;5056027;28;20279;-53
2023/12/08 06:21:40;;;;;;;22.30;12.37;;;0.60;99.90;;;;;;5053652;28;20203;-45
2023/12/08 06:24:07;;;;;;;25.53;13.77;;;0.60;99.90;;;;;;5051681;28;20259;-52
2023/12/08 06:26:37;;;;;;;24.17;13.33;;;0.60;99.90;;;;;;5058573;28;21102;-45
2023/12/08 06:29:04;;;;;;;26.43;14.80;;;0.60;99.90;;;;;;5057064;28;20198;-50
2023/12/08 06:31:31;;;;;;;25.37;13.93;;;0.70;99.90;;;;;;5020354;28;21513;-48
2023/12/08 06:33:58;;;;;;;27.30;12.87;;;0.70;99.90;;;;;;5061383;28;20669;-51
2023/12/08 06:36:24;;;;;;;24.97;14.23;;;0.70;99.90;;;;;;5049042;28;20214;-48
2023/12/08 06:38:51;;;;;;;26.53;14.83;;;0.70;99.90;;;;;;5050916;28;20215;-50
2023/12/08 06:41:18;;;;;;;29.17;14.30;;;0.70;99.90;;;;;;5058188;28;20187;-51
2023/12/08 06:43:47;;;;;;;28.47;14.77;;;0.70;99.90;;;;;;5061107;28;20195;-49
2023/12/08 06:46:14;;;;;;;28.87;14.87;;;0.70;99.90;;;;;;5025527;28;20223;-52
2023/12/08 06:48:41;;;;;;;24.83;14.27;;;0.70;99.90;;;;;;5059326;28;20186;-50
2023/12/08 06:51:08;;;;;;;33.47;16.23;;;0.80;99.90;;;;;;5056989;28;20223;-47
2023/12/08 06:53:35;;;;;;;28.93;14.73;;;0.80;99.90;;;;;;5028401;28;20246;-47
2023/12/08 06:56:01;;;;;;;33.60;15.83;;;0.80;99.90;;;;;;5055076;28;20226;-50
2023/12/08 06:58:28;;;;;;;29.07;15.13;;;0.80;99.90;;;;;;5061731;28;20578;-50
2023/12/08 07:00:56;;;;;;;30.10;15.23;;;0.80;99.90;;;;;;5047167;28;20202;-53
2023/12/08 07:03:23;;;;;;;30.20;15.50;;;0.80;99.90;;;;;;5030493;28;20292;-52
2023/12/08 07:05:50;;;;;;;28.90;14.03;;;0.80;99.90;;;;;;5044892;28;20222;-50
2023/12/08 07:08:17;;;;;;;31.20;15.97;;;0.80;99.90;;;;;;5053261;28;20260;-51
2023/12/08 07:10:43;;;;;;;32.20;16.83;;;0.80;99.90;;;;;;5052167;28;20908;-50
2023/12/08 07:13:10;;;;;;;27.03;13.77;;;0.80;99.90;;;;;;5054426;28;20271;-50
2023/12/08 07:15:37;;;;;;;27.57;15.17;;;0.90;99.90;;;;;;5050202;28;20206;-52
2023/12/08 07:18:06;;;;;;;31.23;15.30;;;0.90;99.90;;;;;;5028905;28;20218;-49
2023/12/08 07:20:34;;;;;;;28.10;15.20;;;0.90;99.90;;;;;;5053713;28;20199;-49
2023/12/08 07:23:01;;;;;;;29.93;16.43;;;0.90;99.90;;;;;;5049757;28;20194;-49
2023/12/08 07:25:28;;;;;;;30.33;16.03;;;0.90;99.90;;;;;;5043807;28;20227;-51
2023/12/08 07:27:55;;;;;;;30.30;16.67;;;0.90;99.90;;;;;;5047309;28;20478;-51
2023/12/08 07:30:22;;;;;;;32.73;16.50;;;0.90;99.90;;;;;;5050372;28;20236;-51
2023/12/08 07:32:50;;;;;;;31.53;15.53;;;0.90;99.90;;;;;;5018873;28;20360;-52
2023/12/08 07:35:18;;;;;;;31.57;15.23;;;1.00;99.90;;;;;;5054685;28;20198;-49
2023/12/08 07:37:45;;;;;;;31.00;16.53;;;1.00;99.90;;;;;;5044455;28;20280;-51
2023/12/08 07:40:13;;;;;;;28.10;15.10;;;1.00;99.90;;;;;;5048157;28;20324;-50
2023/12/08 07:42:40;;;;;;;29.73;16.63;;;1.00;99.90;;;;;;5064631;28;20272;-52
2023/12/08 07:45:08;;;;;;;29.80;15.77;;;1.00;99.90;;;;;;5036017;28;20198;-51
2023/12/08 07:47:34;;;;;;;26.80;15.37;;;1.00;99.90;;;;;;5057703;28;20264;-49
2023/12/08 07:50:01;;;;;;;27.03;14.77;;;1.00;99.90;;;;;;5028013;28;20550;-49
2023/12/08 07:52:31;;;;;;;31.30;16.17;;;1.00;99.90;;;;;;5055261;28;20195;-50
2023/12/08 07:54:58;;;;;;;27.00;16.03;;;1.10;99.90;;;;;;5052526;28;20211;-49
2023/12/08 07:57:25;;;;;;;29.87;15.97;;;1.10;99.90;;;;;;5049051;28;20214;-51
2023/12/08 07:59:52;;;;;;;27.93;15.47;;;1.10;99.90;;;;;;5047962;28;20287;-48
2023/12/08 08:02:19;;;;;;;27.03;15.70;;;1.10;99.90;;;;;;5039935;28;20191;-49
2023/12/08 08:04:46;;;;;;;25.73;14.63;;;1.10;99.90;;;;;;5034476;28;20211;-51
2023/12/08 08:07:13;;;;;;;31.40;16.33;;;1.10;99.90;;;;;;5047819;28;20623;-50
2023/12/08 08:09:41;;;;;;;27.43;16.13;;;1.10;99.90;;;;;;5044346;28;20464;-52
2023/12/08 08:12:09;;;;;;;26.67;16.00;;;1.20;99.90;;;;;;5050121;28;20636;-49
2023/12/08 08:14:36;;;;;;;26.17;14.87;;;1.20;99.90;;;;;;5048024;28;20198;-50
2023/12/08 08:17:02;;;;;;;24.83;15.00;;;1.20;99.90;;;;;;5033127;28;20218;-50
2023/12/08 08:19:29;;;;;;;27.57;15.83;;;1.20;99.90;;;;;;5026039;28;20254;-48
2023/12/08 08:21:56;;;;;;;25.93;14.80;;;1.20;99.90;;;;;;5056866;28;20232;-49
2023/12/08 08:24:23;;;;;;;26.53;14.47;;;1.20;99.90;;;;;;5056005;28;20222;-52
2023/12/08 08:26:51;;;;;;;25.83;14.93;;;1.30;99.90;;;;;;5054568;28;20211;-51
2023/12/08 08:29:18;;;;;;;29.47;16.03;;;1.30;99.90;;;;;;5058782;28;20248;-49
2023/12/08 08:31:45;;;;;;;25.03;14.33;;;1.30;99.90;;;;;;5045611;28;20283;-51
2023/12/08 08:34:11;;;;;;;23.47;13.97;;;1.30;99.90;;;;;;5023257;28;20210;-49
2023/12/08 08:36:38;;;;;;;30.00;15.90;;;1.30;99.90;;;;;;5063079;28;20630;-53
2023/12/08 08:39:05;;;;;;;26.17;15.43;;;1.30;99.90;;;;;;5057996;28;20214;-48
2023/12/08 08:41:32;;;;;;;26.10;15.60;;;1.30;99.90;;;;;;5053641;28;20214;-49
2023/12/08 08:44:00;;;;;;;27.90;15.60;;;1.30;99.90;;;;;;5047457;28;20879;-49
2023/12/08 08:46:27;;;;;;;26.80;15.53;;;1.30;99.90;;;;;;5063148;28;20223;-48
2023/12/08 08:48:54;;;;;;;28.70;16.33;;;1.40;99.90;;;;;;5012279;28;20202;-51
2023/12/08 08:51:21;;;;;;;25.40;14.77;;;1.40;99.90;;;;;;5062014;28;20199;-51
2023/12/08 08:53:49;;;;;;;23.27;14.33;;;1.40;99.90;;;;;;5058444;28;20714;-51
2023/12/08 08:56:16;;;;;;;29.73;15.97;;;1.40;99.90;;;;;;5054673;28;22674;-49
2023/12/08 08:58:42;;;;;;;27.07;14.97;;;1.40;99.90;;;;;;5052797;28;20673;-48
2023/12/08 09:01:11;;;;;;;24.40;14.47;;;1.40;99.90;;;;;;5060238;28;20187;-49
2023/12/08 09:03:37;;;;;;;27.00;15.67;;;1.40;99.90;;;;;;5033320;28;20210;-50
2023/12/08 09:06:05;;;;;;;26.10;15.67;;;1.40;99.90;;;;;;5025611;28;20242;-48
2023/12/08 09:08:31;;;;;;;21.60;14.47;;;1.50;99.90;;;;;;5062036;28;20260;-50
2023/12/08 09:10:59;;;;;;;24.87;14.27;;;1.40;99.90;;;;;;5058556;28;20198;-52
2023/12/08 09:13:26;;;;;;;26.30;15.67;;;1.50;99.90;;;;;;5046190;28;20198;-49
2023/12/08 09:15:53;;;;;;;24.33;15.87;;;1.50;99.90;;;;;;5057594;28;20296;-49
2023/12/08 09:18:21;;;;;;;27.53;15.17;;;1.50;99.90;;;;;;5033863;28;20554;-51
2023/12/08 09:20:48;;;;;;;26.00;14.80;;;1.50;99.90;;;;;;5019768;28;21471;-50
2023/12/08 09:23:15;;;;;;;26.83;14.53;;;1.50;99.90;;;;;;5063072;28;20190;-51
2023/12/08 09:25:42;;;;;;;28.93;14.73;;;1.50;99.90;;;;;;5059365;28;20218;-55
2023/12/08 09:28:09;;;;;;;24.63;14.93;;;1.50;99.90;;;;;;5054089;28;20244;-51
2023/12/08 09:30:36;;;;;;;30.73;15.67;;;1.50;99.90;;;;;;5051578;28;20215;-52
2023/12/08 09:33:04;;;;;;;25.07;15.37;;;1.60;99.90;;;;;;5041927;28;20210;-48
2023/12/08 09:35:32;;;;;;;26.77;15.50;;;1.60;99.90;;;;;;5045313;28;20653;-52
2023/12/08 09:37:59;;;;;;;24.70;14.43;;;1.60;99.90;;;;;;5043438;28;20191;-49
2023/12/08 09:40:28;;;;;;;28.73;15.90;;;1.60;99.90;;;;;;5060639;28;20257;-49
2023/12/08 09:42:59;;;;;;;27.57;16.80;;;1.60;99.90;;;;;;5041477;28;20203;-49
2023/12/08 09:45:25;;;;;;;26.30;15.10;;;1.60;99.90;;;;;;5051543;28;20203;-49
2023/12/08 09:47:54;;;;;;;26.50;15.17;;;1.60;99.90;;;;;;5042431;28;20199;-50
2023/12/08 09:50:22;;;;;;;24.07;14.93;;;1.60;99.90;;;;;;5046740;28;20191;-48
2023/12/08 09:52:51;;;;;;;26.67;15.43;;;1.60;99.90;;;;;;5024446;28;20198;-49
2023/12/08 09:55:18;;;;;;;25.27;15.30;;;1.70;99.90;;;;;;5060963;28;20240;-49
2023/12/08 09:57:46;;;;;;;21.63;14.27;;;1.70;99.90;;;;;;5046917;28;20245;-52
2023/12/08 10:00:15;;;;;;;23.23;14.93;;;1.60;99.90;;;;;;5042836;28;20226;-50
2023/12/08 10:02:42;;;;;;;23.80;14.43;;;1.60;99.90;;;;;;5048791;28;20638;-52
2023/12/08 10:05:11;;;;;;;22.73;14.83;;;1.70;99.90;;;;;;5058869;28;20291;-51
2023/12/08 10:07:40;;;;;;;24.87;15.67;;;1.70;99.90;;;;;;5026418;28;20223;-52
2023/12/08 10:10:09;;;;;;;22.37;13.40;;;1.70;99.90;;;;;;5060112;28;20244;-51
2023/12/08 10:12:37;;;;;;;25.20;14.80;;;1.70;99.90;;;;;;5050436;28;20622;-51
2023/12/08 10:15:09;;;;;;;24.40;15.10;;;1.70;99.90;;;;;;5053011;28;20210;-50
2023/12/08 10:17:35;;;;;;;24.30;15.53;;;1.70;99.90;;;;;;5046860;28;20276;-52
2023/12/08 10:20:10;;;;;;;24.53;15.27;;;1.70;99.90;;;;;;5045613;28;20210;-49
2023/12/08 10:22:45;;;;;;;20.90;14.00;;;1.70;99.90;;;;;;5027608;28;20194;-53
2023/12/08 10:25:14;;;;;;;22.83;13.57;;;1.70;99.90;;;;;;5062702;28;20285;-51
2023/12/08 10:27:41;;;;;;;27.17;15.07;;;1.70;99.90;;;;;;5051589;28;20238;-50
2023/12/08 10:30:09;;;;;;;24.10;15.63;;;1.70;99.90;;;;;;5058324;28;20255;-50
2023/12/08 10:32:38;;;;;;;24.20;14.57;;;1.70;99.90;;;;;;5055214;28;20202;-49
2023/12/08 10:35:05;;;;;;;25.33;14.73;;;1.70;99.90;;;;;;5048700;28;20227;-49
2023/12/08 10:37:32;;;;;;;21.70;13.40;;;1.80;99.90;;;;;;5050256;28;20215;-50
2023/12/08 10:39:59;;;;;;;23.60;14.37;;;1.70;99.90;;;;;;5042845;28;20206;-50
2023/12/08 10:42:28;;;;;;;25.60;14.83;;;1.80;99.90;;;;;;5056724;28;20198;-50
2023/12/08 10:44:55;;;;;;;23.10;14.73;;;1.80;99.90;;;;;;5061630;28;20180;-54
2023/12/08 10:47:22;;;;;;;23.57;14.60;;;1.80;99.90;;;;;;5045427;28;20211;-51
2023/12/08 10:49:50;;;;;;;23.47;14.87;;;1.80;99.90;;;;;;5045094;28;20205;-51
2023/12/08 10:52:19;;;;;;;20.50;12.90;;;1.80;99.90;;;;;;5066113;28;20203;-49
2023/12/08 10:54:46;;;;;;;22.20;13.47;;;1.80;99.90;;;;;;5030210;28;20214;-51
2023/12/08 10:57:13;;;;;;;25.33;13.83;;;1.80;99.90;;;;;;5064748;28;20223;-50
2023/12/08 10:59:44;;;;;;;20.37;13.50;;;1.80;99.90;;;;;;5052341;28;20688;-46
2023/12/08 11:02:21;;;;;;;21.60;13.93;;;1.80;99.90;;;;;;5058480;28;20206;-51
2023/12/08 11:04:54;;;;;;;23.40;13.50;;;1.80;99.90;;;;;;5037168;28;20877;-49
2023/12/08 11:07:31;;;;;;;21.27;12.83;;;1.80;99.90;;;;;;5065656;28;20774;-52
2023/12/08 11:10:02;;;;;;;20.83;12.90;;;1.80;99.90;;;;;;5030838;28;20912;-51
2023/12/08 11:12:31;;;;;;;21.67;13.73;;;1.80;99.90;;;;;;5058548;28;20250;-53
2023/12/08 11:15:04;;;;;;;21.43;13.70;;;1.80;99.90;;;;;;5052133;28;20285;-51
2023/12/08 11:17:34;;;;;;;22.83;13.90;;;1.90;99.90;;;;;;5053819;28;20226;-51
2023/12/08 11:20:03;;;;;;;21.83;14.23;;;1.80;99.90;;;;;;5050712;28;20214;-51
2023/12/08 11:22:30;;;;;;;22.37;13.97;;;1.80;99.90;;;;;;5037693;28;20555;-48
2023/12/08 11:24:58;;;;;;;23.27;13.33;;;1.90;99.90;;;;;;5029702;28;20226;-52
2023/12/08 11:27:33;;;;;;;20.47;12.93;;;1.80;99.90;;;;;;5059570;28;20583;-51
2023/12/08 11:30:08;;;;;;;22.27;14.33;;;1.80;99.90;;;;;;5045709;28;20600;-51
2023/12/08 11:32:39;;;;;;;23.70;14.10;;;1.80;99.90;;;;;;5061639;28;20269;-51
2023/12/08 11:35:09;;;;;;;22.93;14.23;;;1.80;99.90;;;;;;5050381;28;20210;-50
2023/12/08 11:37:36;;;;;;;23.13;14.07;;;1.80;99.90;;;;;;5040634;28;20738;-50
2023/12/08 11:40:05;;;;;;;25.47;14.83;;;1.80;99.90;;;;;;5026107;28;20399;-51
2023/12/08 11:42:33;;;;;;;21.20;13.17;;;1.80;99.90;;;;;;5062872;28;20247;-46
2023/12/08 11:45:00;;;;;;;24.30;13.43;;;1.80;99.90;;;;;;5050209;28;20307;-49
2023/12/08 11:47:30;;;;;;;25.00;14.53;;;1.80;99.90;;;;;;5056639;28;20565;-51
2023/12/08 11:49:57;;;;;;;27.53;14.40;;;1.70;99.90;;;;;;5048816;28;20313;-51
2023/12/08 11:52:27;;;;;;;24.80;14.60;;;1.70;99.90;;;;;;5045855;28;20255;-54
2023/12/08 11:55:19;;;;;;;25.80;14.20;;;1.70;99.90;;;;;;5021357;28;21693;-50
2023/12/08 11:57:54;;;;;;;24.00;15.43;;;1.60;99.90;;;;;;5049312;28;20242;-51
2023/12/08 12:00:22;;;;;;;22.73;14.37;;;1.60;99.90;;;;;;5063498;28;20295;-50
2023/12/08 12:02:51;;;;;;;27.23;15.70;;;1.60;99.90;;;;;;5050526;28;20226;-52
2023/12/08 12:05:19;;;;;;;25.70;15.03;;;1.60;99.90;;;;;;5054710;28;20275;-50
2023/12/08 12:07:49;;;;;;;22.80;13.27;;;1.50;99.90;;;;;;5044891;28;20207;-51
2023/12/08 12:10:18;;;;;;;27.27;15.33;;;1.50;99.90;;;;;;5021896;28;20214;-53
2023/12/08 12:12:50;;;;;;;26.40;15.37;;;1.50;99.90;;;;;;5054173;28;20191;-52
2023/12/08 12:15:20;;;;;;;26.30;15.33;;;1.50;99.90;;;;;;5059427;28;20278;-53
2023/12/08 12:17:48;;;;;;;27.00;15.30;;;1.50;99.90;;;;;;5045541;28;20819;-49
2023/12/08 12:20:17;;;;;;;26.47;14.70;;;1.40;99.90;;;;;;5063941;28;20264;-51
2023/12/08 12:22:44;;;;;;;25.30;16.07;;;1.40;99.90;;;;;;5050767;28;20661;-51
2023/12/08 12:25:11;;;;;;;27.13;16.17;;;1.40;99.90;;;;;;5035871;28;20275;-51
2023/12/08 12:27:42;;;;;;;25.60;14.90;;;1.40;99.90;;;;;;5028482;28;20240;-48
2023/12/08 12:30:10;;;;;;;27.77;15.63;;;1.40;99.90;;;;;;5060335;28;20257;-52
2023/12/08 12:32:37;;;;;;;26.30;14.37;;;1.40;99.90;;;;;;5051392;28;20205;-49
2023/12/08 12:35:05;;;;;;;28.37;16.50;;;1.40;99.90;;;;;;5062359;28;20194;-51
2023/12/08 12:37:33;;;;;;;29.07;15.73;;;1.40;99.90;;;;;;5050671;28;20808;-50